sensor_id;sensor_type;location;lat;lon;timestamp;P1;durP1;ratioP1;P2;durP2;ratioP2
64714;SDS011;51144;53.002;6.506;2022-07-24T00:00:07;3.53;;;1.13;;
64714;SDS011;51144;53.002;6.506;2022-07-24T00:02:33;2.90;;;1.23;;
64714;SDS011;51144;53.002;6.506;2022-07-24T00:04:59;2.95;;;1.48;;
64714;SDS011;51144;53.002;6.506;2022-07-24T00:07:26;2.28;;;1.00;;
64714;SDS011;51144;53.002;6.506;2022-07-24T00:09:53;3.28;;;1.25;;
64714;SDS011;51144;53.002;6.506;2022-07-24T00:12:21;1.75;;;1.15;;
64714;SDS011;51144;53.002;6.506;2022-07-24T00:14:47;2.78;;;0.90;;
64714;SDS011;51144;53.002;6.506;2022-07-24T00:17:13;1.80;;;1.30;;
64714;SDS011;51144;53.002;6.506;2022-07-24T00:19:38;6.20;;;1.67;;
64714;SDS011;51144;53.002;6.506;2022-07-24T00:22:04;2.30;;;1.10;;
64714;SDS011;51144;53.002;6.506;2022-07-24T00:24:29;1.73;;;1.13;;
64714;SDS011;51144;53.002;6.506;2022-07-24T00:26:55;2.50;;;1.42;;
64714;SDS011;51144;53.002;6.506;2022-07-24T00:29:21;3.45;;;1.25;;
64714;SDS011;51144;53.002;6.506;2022-07-24T00:31:46;2.67;;;0.80;;
64714;SDS011;51144;53.002;6.506;2022-07-24T00:34:12;1.92;;;1.10;;
64714;SDS011;51144;53.002;6.506;2022-07-24T00:36:37;2.08;;;1.40;;
64714;SDS011;51144;53.002;6.506;2022-07-24T00:39:03;3.40;;;1.52;;
64714;SDS011;51144;53.002;6.506;2022-07-24T00:41:29;3.75;;;1.40;;
64714;SDS011;51144;53.002;6.506;2022-07-24T00:44:14;1.50;;;1.00;;
64714;SDS011;51144;53.002;6.506;2022-07-24T00:46:41;4.43;;;1.30;;
64714;SDS011;51144;53.002;6.506;2022-07-24T00:49:10;1.48;;;1.10;;
64714;SDS011;51144;53.002;6.506;2022-07-24T00:51:37;5.85;;;1.98;;
64714;SDS011;51144;53.002;6.506;2022-07-24T00:54:05;3.70;;;1.67;;
64714;SDS011;51144;53.002;6.506;2022-07-24T00:56:32;3.17;;;2.38;;
64714;SDS011;51144;53.002;6.506;2022-07-24T00:58:59;2.30;;;1.27;;
64714;SDS011;51144;53.002;6.506;2022-07-24T01:01:25;2.50;;;2.17;;
64714;SDS011;51144;53.002;6.506;2022-07-24T01:03:51;1.85;;;1.38;;
64714;SDS011;51144;53.002;6.506;2022-07-24T01:06:16;19.50;;;3.00;;
64714;SDS011;51144;53.002;6.506;2022-07-24T01:08:42;4.40;;;2.25;;
64714;SDS011;51144;53.002;6.506;2022-07-24T01:11:08;7.93;;;2.08;;
64714;SDS011;51144;53.002;6.506;2022-07-24T01:13:34;3.53;;;2.00;;
64714;SDS011;51144;53.002;6.506;2022-07-24T01:16:00;2.78;;;2.22;;
64714;SDS011;51144;53.002;6.506;2022-07-24T01:18:26;4.68;;;2.03;;
64714;SDS011;51144;53.002;6.506;2022-07-24T01:20:52;2.78;;;2.08;;
64714;SDS011;51144;53.002;6.506;2022-07-24T01:23:18;5.15;;;2.55;;
64714;SDS011;51144;53.002;6.506;2022-07-24T01:25:43;2.80;;;2.20;;
64714;SDS011;51144;53.002;6.506;2022-07-24T01:28:09;5.22;;;2.53;;
64714;SDS011;51144;53.002;6.506;2022-07-24T01:30:34;3.60;;;2.65;;
64714;SDS011;51144;53.002;6.506;2022-07-24T01:33:00;2.53;;;2.30;;
64714;SDS011;51144;53.002;6.506;2022-07-24T01:35:26;7.72;;;2.67;;
64714;SDS011;51144;53.002;6.506;2022-07-24T01:37:52;3.63;;;2.83;;
64714;SDS011;51144;53.002;6.506;2022-07-24T01:40:18;2.95;;;2.60;;
64714;SDS011;51144;53.002;6.506;2022-07-24T01:42:45;3.85;;;2.70;;
64714;SDS011;51144;53.002;6.506;2022-07-24T01:45:11;4.25;;;2.88;;
64714;SDS011;51144;53.002;6.506;2022-07-24T01:47:37;6.03;;;3.03;;
64714;SDS011;51144;53.002;6.506;2022-07-24T01:50:03;3.38;;;3.10;;
64714;SDS011;51144;53.002;6.506;2022-07-24T01:52:29;5.13;;;3.20;;
64714;SDS011;51144;53.002;6.506;2022-07-24T01:54:57;3.10;;;2.90;;
64714;SDS011;51144;53.002;6.506;2022-07-24T01:57:23;5.28;;;3.25;;
64714;SDS011;51144;53.002;6.506;2022-07-24T01:59:48;4.38;;;3.25;;
64714;SDS011;51144;53.002;6.506;2022-07-24T02:02:14;3.88;;;3.45;;
64714;SDS011;51144;53.002;6.506;2022-07-24T02:04:40;3.40;;;3.10;;
64714;SDS011;51144;53.002;6.506;2022-07-24T02:07:08;3.50;;;3.20;;
64714;SDS011;51144;53.002;6.506;2022-07-24T02:09:34;6.82;;;4.07;;
64714;SDS011;51144;53.002;6.506;2022-07-24T02:11:59;4.00;;;3.25;;
64714;SDS011;51144;53.002;6.506;2022-07-24T02:14:25;3.28;;;2.97;;
64714;SDS011;51144;53.002;6.506;2022-07-24T02:16:51;4.93;;;4.45;;
64714;SDS011;51144;53.002;6.506;2022-07-24T02:19:16;4.25;;;3.85;;
64714;SDS011;51144;53.002;6.506;2022-07-24T02:21:42;6.22;;;3.88;;
64714;SDS011;51144;53.002;6.506;2022-07-24T02:24:07;5.55;;;3.88;;
64714;SDS011;51144;53.002;6.506;2022-07-24T02:26:33;7.53;;;4.78;;
64714;SDS011;51144;53.002;6.506;2022-07-24T02:28:59;3.95;;;3.70;;
64714;SDS011;51144;53.002;6.506;2022-07-24T02:31:24;4.85;;;4.45;;
64714;SDS011;51144;53.002;6.506;2022-07-24T02:33:50;6.30;;;4.75;;
64714;SDS011;51144;53.002;6.506;2022-07-24T02:36:15;5.18;;;4.15;;
64714;SDS011;51144;53.002;6.506;2022-07-24T02:38:41;5.30;;;4.35;;
64714;SDS011;51144;53.002;6.506;2022-07-24T02:41:07;4.75;;;3.95;;
64714;SDS011;51144;53.002;6.506;2022-07-24T02:43:32;4.20;;;3.90;;
64714;SDS011;51144;53.002;6.506;2022-07-24T02:45:58;4.55;;;4.03;;
64714;SDS011;51144;53.002;6.506;2022-07-24T02:48:24;5.35;;;4.25;;
64714;SDS011;51144;53.002;6.506;2022-07-24T02:50:49;4.15;;;3.85;;
64714;SDS011;51144;53.002;6.506;2022-07-24T02:53:15;4.55;;;4.25;;
64714;SDS011;51144;53.002;6.506;2022-07-24T02:55:41;4.28;;;3.97;;
64714;SDS011;51144;53.002;6.506;2022-07-24T02:58:06;10.75;;;5.72;;
64714;SDS011;51144;53.002;6.506;2022-07-24T03:00:32;6.32;;;4.55;;
64714;SDS011;51144;53.002;6.506;2022-07-24T03:02:57;4.78;;;4.38;;
64714;SDS011;51144;53.002;6.506;2022-07-24T03:05:23;4.75;;;4.38;;
64714;SDS011;51144;53.002;6.506;2022-07-24T03:07:49;6.28;;;4.47;;
64714;SDS011;51144;53.002;6.506;2022-07-24T03:10:15;5.55;;;4.78;;
64714;SDS011;51144;53.002;6.506;2022-07-24T03:12:41;4.72;;;4.32;;
64714;SDS011;51144;53.002;6.506;2022-07-24T03:15:08;4.70;;;4.30;;
64714;SDS011;51144;53.002;6.506;2022-07-24T03:17:35;5.32;;;4.68;;
64714;SDS011;51144;53.002;6.506;2022-07-24T03:20:01;6.05;;;4.55;;
64714;SDS011;51144;53.002;6.506;2022-07-24T03:22:27;5.70;;;4.47;;
64714;SDS011;51144;53.002;6.506;2022-07-24T03:24:53;5.78;;;4.55;;
64714;SDS011;51144;53.002;6.506;2022-07-24T03:27:18;5.70;;;4.03;;
64714;SDS011;51144;53.002;6.506;2022-07-24T03:29:44;5.03;;;4.50;;
64714;SDS011;51144;53.002;6.506;2022-07-24T03:32:10;4.90;;;4.50;;
64714;SDS011;51144;53.002;6.506;2022-07-24T03:34:36;5.35;;;4.85;;
64714;SDS011;51144;53.002;6.506;2022-07-24T03:37:04;5.10;;;4.60;;
64714;SDS011;51144;53.002;6.506;2022-07-24T03:39:29;5.45;;;4.90;;
64714;SDS011;51144;53.002;6.506;2022-07-24T03:41:55;4.57;;;4.28;;
64714;SDS011;51144;53.002;6.506;2022-07-24T03:44:21;5.97;;;4.65;;
64714;SDS011;51144;53.002;6.506;2022-07-24T03:46:46;5.35;;;4.72;;
64714;SDS011;51144;53.002;6.506;2022-07-24T03:49:12;5.50;;;5.07;;
64714;SDS011;51144;53.002;6.506;2022-07-24T03:51:37;6.10;;;4.78;;
64714;SDS011;51144;53.002;6.506;2022-07-24T03:54:03;4.93;;;4.55;;
64714;SDS011;51144;53.002;6.506;2022-07-24T03:56:29;4.70;;;4.30;;
64714;SDS011;51144;53.002;6.506;2022-07-24T03:58:55;5.05;;;4.43;;
64714;SDS011;51144;53.002;6.506;2022-07-24T04:01:21;4.80;;;4.47;;
64714;SDS011;51144;53.002;6.506;2022-07-24T04:03:47;5.50;;;5.03;;
64714;SDS011;51144;53.002;6.506;2022-07-24T04:06:13;4.55;;;3.97;;
64714;SDS011;51144;53.002;6.506;2022-07-24T04:08:39;4.93;;;4.47;;
64714;SDS011;51144;53.002;6.506;2022-07-24T04:11:05;4.70;;;4.30;;
64714;SDS011;51144;53.002;6.506;2022-07-24T04:13:32;4.65;;;3.95;;
64714;SDS011;51144;53.002;6.506;2022-07-24T04:15:58;5.85;;;5.35;;
64714;SDS011;51144;53.002;6.506;2022-07-24T04:18:24;4.80;;;4.20;;
64714;SDS011;51144;53.002;6.506;2022-07-24T04:20:50;4.55;;;4.15;;
64714;SDS011;51144;53.002;6.506;2022-07-24T04:23:16;4.95;;;4.47;;
64714;SDS011;51144;53.002;6.506;2022-07-24T04:25:42;5.53;;;4.65;;
64714;SDS011;51144;53.002;6.506;2022-07-24T04:28:08;5.03;;;4.68;;
64714;SDS011;51144;53.002;6.506;2022-07-24T04:30:33;4.65;;;4.28;;
64714;SDS011;51144;53.002;6.506;2022-07-24T04:33:00;4.47;;;4.13;;
64714;SDS011;51144;53.002;6.506;2022-07-24T04:35:26;5.05;;;4.68;;
64714;SDS011;51144;53.002;6.506;2022-07-24T04:37:51;6.63;;;4.28;;
64714;SDS011;51144;53.002;6.506;2022-07-24T04:40:17;6.57;;;3.97;;
64714;SDS011;51144;53.002;6.506;2022-07-24T04:42:42;4.80;;;4.45;;
64714;SDS011;51144;53.002;6.506;2022-07-24T04:45:08;6.07;;;4.45;;
64714;SDS011;51144;53.002;6.506;2022-07-24T04:47:35;5.43;;;4.22;;
64714;SDS011;51144;53.002;6.506;2022-07-24T04:50:01;5.55;;;4.82;;
64714;SDS011;51144;53.002;6.506;2022-07-24T04:52:28;6.43;;;4.40;;
64714;SDS011;51144;53.002;6.506;2022-07-24T04:54:53;6.65;;;4.40;;
64714;SDS011;51144;53.002;6.506;2022-07-24T04:57:19;4.50;;;4.13;;
64714;SDS011;51144;53.002;6.506;2022-07-24T04:59:45;3.88;;;3.67;;
64714;SDS011;51144;53.002;6.506;2022-07-24T05:02:10;5.07;;;4.22;;
64714;SDS011;51144;53.002;6.506;2022-07-24T05:04:36;4.43;;;4.03;;
64714;SDS011;51144;53.002;6.506;2022-07-24T05:07:02;4.07;;;3.80;;
64714;SDS011;51144;53.002;6.506;2022-07-24T05:09:28;5.20;;;3.42;;
64714;SDS011;51144;53.002;6.506;2022-07-24T05:11:53;3.33;;;3.13;;
64714;SDS011;51144;53.002;6.506;2022-07-24T05:14:19;4.50;;;4.10;;
64714;SDS011;51144;53.002;6.506;2022-07-24T05:16:45;4.38;;;3.63;;
64714;SDS011;51144;53.002;6.506;2022-07-24T05:19:11;4.32;;;3.92;;
64714;SDS011;51144;53.002;6.506;2022-07-24T05:21:36;4.82;;;4.15;;
64714;SDS011;51144;53.002;6.506;2022-07-24T05:24:02;4.88;;;4.47;;
64714;SDS011;51144;53.002;6.506;2022-07-24T05:26:28;4.22;;;3.90;;
64714;SDS011;51144;53.002;6.506;2022-07-24T05:29:00;5.70;;;3.63;;
64714;SDS011;51144;53.002;6.506;2022-07-24T05:31:26;6.88;;;3.80;;
64714;SDS011;51144;53.002;6.506;2022-07-24T05:33:52;10.60;;;4.85;;
64714;SDS011;51144;53.002;6.506;2022-07-24T05:36:18;4.68;;;3.53;;
64714;SDS011;51144;53.002;6.506;2022-07-24T05:38:44;6.60;;;3.28;;
64714;SDS011;51144;53.002;6.506;2022-07-24T05:41:10;5.30;;;3.47;;
64714;SDS011;51144;53.002;6.506;2022-07-24T05:43:36;6.25;;;3.72;;
64714;SDS011;51144;53.002;6.506;2022-07-24T05:46:03;4.25;;;3.75;;
64714;SDS011;51144;53.002;6.506;2022-07-24T05:48:29;4.90;;;4.10;;
64714;SDS011;51144;53.002;6.506;2022-07-24T05:50:54;4.80;;;4.35;;
64714;SDS011;51144;53.002;6.506;2022-07-24T05:53:21;4.30;;;3.90;;
64714;SDS011;51144;53.002;6.506;2022-07-24T05:55:47;4.72;;;4.28;;
64714;SDS011;51144;53.002;6.506;2022-07-24T05:58:13;7.63;;;5.00;;
64714;SDS011;51144;53.002;6.506;2022-07-24T06:00:38;5.82;;;5.22;;
64714;SDS011;51144;53.002;6.506;2022-07-24T06:03:04;5.53;;;4.80;;
64714;SDS011;51144;53.002;6.506;2022-07-24T06:05:29;7.18;;;5.60;;
64714;SDS011;51144;53.002;6.506;2022-07-24T06:07:55;5.13;;;4.68;;
64714;SDS011;51144;53.002;6.506;2022-07-24T06:10:20;5.95;;;4.55;;
64714;SDS011;51144;53.002;6.506;2022-07-24T06:12:46;4.93;;;4.45;;
64714;SDS011;51144;53.002;6.506;2022-07-24T06:15:15;6.57;;;5.55;;
64714;SDS011;51144;53.002;6.506;2022-07-24T06:17:40;6.95;;;6.03;;
64714;SDS011;51144;53.002;6.506;2022-07-24T06:20:07;5.70;;;5.30;;
64714;SDS011;51144;53.002;6.506;2022-07-24T06:22:34;5.88;;;5.38;;
64714;SDS011;51144;53.002;6.506;2022-07-24T06:25:03;7.18;;;4.95;;
64714;SDS011;51144;53.002;6.506;2022-07-24T06:27:28;6.63;;;5.57;;
64714;SDS011;51144;53.002;6.506;2022-07-24T06:29:54;6.68;;;6.07;;
64714;SDS011;51144;53.002;6.506;2022-07-24T06:32:20;6.65;;;6.05;;
64714;SDS011;51144;53.002;6.506;2022-07-24T06:34:45;6.03;;;5.60;;
64714;SDS011;51144;53.002;6.506;2022-07-24T06:37:11;5.93;;;5.53;;
64714;SDS011;51144;53.002;6.506;2022-07-24T06:39:36;7.25;;;6.55;;
64714;SDS011;51144;53.002;6.506;2022-07-24T06:42:02;9.40;;;7.95;;
64714;SDS011;51144;53.002;6.506;2022-07-24T06:44:28;7.35;;;6.70;;
64714;SDS011;51144;53.002;6.506;2022-07-24T06:46:54;8.82;;;7.93;;
64714;SDS011;51144;53.002;6.506;2022-07-24T06:49:19;9.07;;;7.05;;
64714;SDS011;51144;53.002;6.506;2022-07-24T06:51:45;8.27;;;7.57;;
64714;SDS011;51144;53.002;6.506;2022-07-24T06:54:13;8.60;;;7.07;;
64714;SDS011;51144;53.002;6.506;2022-07-24T06:56:39;12.05;;;8.20;;
64714;SDS011;51144;53.002;6.506;2022-07-24T06:59:04;9.38;;;7.97;;
64714;SDS011;51144;53.002;6.506;2022-07-24T07:01:30;9.05;;;8.25;;
64714;SDS011;51144;53.002;6.506;2022-07-24T07:03:55;8.82;;;7.88;;
64714;SDS011;51144;53.002;6.506;2022-07-24T07:06:21;9.95;;;9.00;;
64714;SDS011;51144;53.002;6.506;2022-07-24T07:08:47;8.95;;;8.15;;
64714;SDS011;51144;53.002;6.506;2022-07-24T07:11:13;9.95;;;6.60;;
64714;SDS011;51144;53.002;6.506;2022-07-24T07:13:41;8.55;;;7.68;;
64714;SDS011;51144;53.002;6.506;2022-07-24T07:16:07;7.03;;;6.38;;
64714;SDS011;51144;53.002;6.506;2022-07-24T07:18:32;7.72;;;7.03;;
64714;SDS011;51144;53.002;6.506;2022-07-24T07:21:01;7.43;;;6.80;;
64714;SDS011;51144;53.002;6.506;2022-07-24T07:23:26;7.45;;;6.85;;
64714;SDS011;51144;53.002;6.506;2022-07-24T07:25:52;7.43;;;6.72;;
64714;SDS011;51144;53.002;6.506;2022-07-24T07:28:21;10.13;;;6.90;;
64714;SDS011;51144;53.002;6.506;2022-07-24T07:30:46;7.95;;;6.32;;
64714;SDS011;51144;53.002;6.506;2022-07-24T07:33:14;7.30;;;5.45;;
64714;SDS011;51144;53.002;6.506;2022-07-24T07:35:40;7.10;;;6.40;;
64714;SDS011;51144;53.002;6.506;2022-07-24T07:38:06;6.57;;;5.13;;
64714;SDS011;51144;53.002;6.506;2022-07-24T07:40:31;6.70;;;5.32;;
64714;SDS011;51144;53.002;6.506;2022-07-24T07:42:57;6.35;;;5.57;;
64714;SDS011;51144;53.002;6.506;2022-07-24T07:45:22;5.28;;;4.20;;
64714;SDS011;51144;53.002;6.506;2022-07-24T07:47:48;4.45;;;4.03;;
64714;SDS011;51144;53.002;6.506;2022-07-24T07:50:14;5.88;;;3.97;;
64714;SDS011;51144;53.002;6.506;2022-07-24T07:52:39;6.07;;;4.20;;
64714;SDS011;51144;53.002;6.506;2022-07-24T07:55:05;4.70;;;3.78;;
64714;SDS011;51144;53.002;6.506;2022-07-24T07:57:34;3.85;;;3.33;;
64714;SDS011;51144;53.002;6.506;2022-07-24T07:59:59;3.40;;;3.00;;
64714;SDS011;51144;53.002;6.506;2022-07-24T08:02:25;4.32;;;3.70;;
64714;SDS011;51144;53.002;6.506;2022-07-24T08:04:50;6.80;;;3.90;;
64714;SDS011;51144;53.002;6.506;2022-07-24T08:07:16;4.13;;;3.20;;
64714;SDS011;51144;53.002;6.506;2022-07-24T08:09:41;4.45;;;2.90;;
64714;SDS011;51144;53.002;6.506;2022-07-24T08:12:07;4.60;;;2.72;;
64714;SDS011;51144;53.002;6.506;2022-07-24T08:14:33;3.90;;;1.90;;
64714;SDS011;51144;53.002;6.506;2022-07-24T08:16:58;4.15;;;2.10;;
64714;SDS011;51144;53.002;6.506;2022-07-24T08:19:24;1.83;;;1.70;;
64714;SDS011;51144;53.002;6.506;2022-07-24T08:21:49;3.30;;;1.77;;
64714;SDS011;51144;53.002;6.506;2022-07-24T08:24:15;3.47;;;1.73;;
64714;SDS011;51144;53.002;6.506;2022-07-24T08:26:46;1.88;;;1.67;;
64714;SDS011;51144;53.002;6.506;2022-07-24T08:29:12;3.17;;;1.83;;
64714;SDS011;51144;53.002;6.506;2022-07-24T08:31:38;6.07;;;1.90;;
64714;SDS011;51144;53.002;6.506;2022-07-24T08:34:04;3.20;;;1.70;;
64714;SDS011;51144;53.002;6.506;2022-07-24T08:36:30;2.80;;;1.60;;
64714;SDS011;51144;53.002;6.506;2022-07-24T08:38:55;3.55;;;1.60;;
64714;SDS011;51144;53.002;6.506;2022-07-24T08:41:21;2.70;;;2.22;;
64714;SDS011;51144;53.002;6.506;2022-07-24T08:43:47;3.35;;;1.90;;
64714;SDS011;51144;53.002;6.506;2022-07-24T08:46:12;4.75;;;2.63;;
64714;SDS011;51144;53.002;6.506;2022-07-24T08:48:43;4.10;;;2.08;;
64714;SDS011;51144;53.002;6.506;2022-07-24T08:51:10;9.00;;;2.28;;
64714;SDS011;51144;53.002;6.506;2022-07-24T08:53:38;2.58;;;1.55;;
64714;SDS011;51144;53.002;6.506;2022-07-24T08:56:04;4.10;;;1.77;;
64714;SDS011;51144;53.002;6.506;2022-07-24T08:58:30;2.65;;;1.33;;
64714;SDS011;51144;53.002;6.506;2022-07-24T09:01:00;11.43;;;1.75;;
64714;SDS011;51144;53.002;6.506;2022-07-24T09:03:25;2.17;;;1.38;;
64714;SDS011;51144;53.002;6.506;2022-07-24T09:05:51;1.45;;;1.20;;
64714;SDS011;51144;53.002;6.506;2022-07-24T09:08:19;2.22;;;1.42;;
64714;SDS011;51144;53.002;6.506;2022-07-24T09:10:57;4.25;;;1.60;;
64714;SDS011;51144;53.002;6.506;2022-07-24T09:13:25;2.88;;;1.45;;
64714;SDS011;51144;53.002;6.506;2022-07-24T09:15:52;3.17;;;1.20;;
64714;SDS011;51144;53.002;6.506;2022-07-24T09:18:24;2.85;;;1.30;;
64714;SDS011;51144;53.002;6.506;2022-07-24T09:21:12;2.00;;;1.23;;
64714;SDS011;51144;53.002;6.506;2022-07-24T09:23:40;2.95;;;1.10;;
64714;SDS011;51144;53.002;6.506;2022-07-24T09:26:06;4.07;;;1.02;;
64714;SDS011;51144;53.002;6.506;2022-07-24T09:28:51;1.38;;;0.88;;
64714;SDS011;51144;53.002;6.506;2022-07-24T09:31:18;1.50;;;1.30;;
64714;SDS011;51144;53.002;6.506;2022-07-24T09:33:47;1.67;;;1.23;;
64714;SDS011;51144;53.002;6.506;2022-07-24T09:36:13;2.80;;;1.40;;
64714;SDS011;51144;53.002;6.506;2022-07-24T09:38:44;3.53;;;1.25;;
64714;SDS011;51144;53.002;6.506;2022-07-24T09:41:24;2.75;;;1.20;;
64714;SDS011;51144;53.002;6.506;2022-07-24T09:44:00;4.30;;;1.27;;
64714;SDS011;51144;53.002;6.506;2022-07-24T09:46:27;7.18;;;1.05;;
64714;SDS011;51144;53.002;6.506;2022-07-24T09:48:55;1.52;;;0.80;;
64714;SDS011;51144;53.002;6.506;2022-07-24T09:51:23;1.55;;;1.00;;
64714;SDS011;51144;53.002;6.506;2022-07-24T09:53:57;1.45;;;0.98;;
64714;SDS011;51144;53.002;6.506;2022-07-24T09:56:25;2.78;;;0.80;;
64714;SDS011;51144;53.002;6.506;2022-07-24T09:58:53;2.97;;;1.33;;
64714;SDS011;51144;53.002;6.506;2022-07-24T10:01:21;2.28;;;0.93;;
64714;SDS011;51144;53.002;6.506;2022-07-24T10:03:49;1.42;;;0.63;;
64714;SDS011;51144;53.002;6.506;2022-07-24T10:06:16;5.88;;;1.35;;
64714;SDS011;51144;53.002;6.506;2022-07-24T10:08:46;5.82;;;0.95;;
64714;SDS011;51144;53.002;6.506;2022-07-24T10:11:14;2.70;;;0.95;;
64714;SDS011;51144;53.002;6.506;2022-07-24T10:13:40;3.63;;;0.98;;
64714;SDS011;51144;53.002;6.506;2022-07-24T10:21:25;2.03;;;0.75;;
64714;SDS011;51144;53.002;6.506;2022-07-24T10:27:04;2.47;;;1.30;;
64714;SDS011;51144;53.002;6.506;2022-07-24T10:29:27;1.45;;;0.70;;
64714;SDS011;51144;53.002;6.506;2022-07-24T10:31:54;2.33;;;0.90;;
64714;SDS011;51144;53.002;6.506;2022-07-24T10:34:36;1.40;;;1.08;;
64714;SDS011;51144;53.002;6.506;2022-07-24T10:42:33;2.35;;;0.90;;
64714;SDS011;51144;53.002;6.506;2022-07-24T10:45:18;1.50;;;0.68;;
64714;SDS011;51144;53.002;6.506;2022-07-24T10:47:45;4.20;;;0.60;;
64714;SDS011;51144;53.002;6.506;2022-07-24T10:50:11;2.15;;;0.90;;
64714;SDS011;51144;53.002;6.506;2022-07-24T10:52:39;2.38;;;0.68;;
64714;SDS011;51144;53.002;6.506;2022-07-24T11:00:36;1.48;;;0.65;;
64714;SDS011;51144;53.002;6.506;2022-07-24T11:03:05;3.08;;;0.75;;
64714;SDS011;51144;53.002;6.506;2022-07-24T11:05:36;1.77;;;1.20;;
64714;SDS011;51144;53.002;6.506;2022-07-24T11:10:44;2.38;;;0.93;;
64714;SDS011;51144;53.002;6.506;2022-07-24T11:26:39;3.85;;;1.00;;
64714;SDS011;51144;53.002;6.506;2022-07-24T11:29:12;1.92;;;0.95;;
64714;SDS011;51144;53.002;6.506;2022-07-24T11:31:49;2.35;;;1.20;;
64714;SDS011;51144;53.002;6.506;2022-07-24T11:34:18;3.60;;;0.90;;
64714;SDS011;51144;53.002;6.506;2022-07-24T11:36:44;1.48;;;0.80;;
64714;SDS011;51144;53.002;6.506;2022-07-24T11:39:13;3.20;;;1.05;;
64714;SDS011;51144;53.002;6.506;2022-07-24T11:41:49;1.20;;;0.95;;
64714;SDS011;51144;53.002;6.506;2022-07-24T11:44:23;1.20;;;0.70;;
64714;SDS011;51144;53.002;6.506;2022-07-24T11:46:50;3.53;;;0.60;;
64714;SDS011;51144;53.002;6.506;2022-07-24T11:49:15;1.83;;;0.75;;
64714;SDS011;51144;53.002;6.506;2022-07-24T11:54:07;1.27;;;0.73;;
64714;SDS011;51144;53.002;6.506;2022-07-24T11:56:33;2.15;;;0.60;;
64714;SDS011;51144;53.002;6.506;2022-07-24T11:58:59;2.33;;;0.77;;
64714;SDS011;51144;53.002;6.506;2022-07-24T12:01:25;2.20;;;0.80;;
64714;SDS011;51144;53.002;6.506;2022-07-24T12:03:51;2.80;;;0.75;;
64714;SDS011;51144;53.002;6.506;2022-07-24T12:06:21;4.70;;;0.93;;
64714;SDS011;51144;53.002;6.506;2022-07-24T12:08:46;1.52;;;0.80;;
64714;SDS011;51144;53.002;6.506;2022-07-24T12:11:19;1.83;;;1.00;;
64714;SDS011;51144;53.002;6.506;2022-07-24T12:13:48;2.50;;;0.90;;
64714;SDS011;51144;53.002;6.506;2022-07-24T12:16:23;2.38;;;0.80;;
64714;SDS011;51144;53.002;6.506;2022-07-24T12:21:15;1.55;;;0.80;;
64714;SDS011;51144;53.002;6.506;2022-07-24T12:23:44;4.18;;;1.10;;
64714;SDS011;51144;53.002;6.506;2022-07-24T12:26:11;3.38;;;0.90;;
64714;SDS011;51144;53.002;6.506;2022-07-24T12:28:36;1.95;;;0.88;;
64714;SDS011;51144;53.002;6.506;2022-07-24T12:31:05;5.20;;;1.23;;
64714;SDS011;51144;53.002;6.506;2022-07-24T12:33:35;3.10;;;0.82;;
64714;SDS011;51144;53.002;6.506;2022-07-24T12:36:07;3.10;;;0.73;;
64714;SDS011;51144;53.002;6.506;2022-07-24T12:38:51;2.97;;;0.85;;
64714;SDS011;51144;53.002;6.506;2022-07-24T12:41:19;1.25;;;0.90;;
64714;SDS011;51144;53.002;6.506;2022-07-24T12:46:20;1.73;;;0.73;;
64714;SDS011;51144;53.002;6.506;2022-07-24T12:54:14;1.98;;;0.98;;
64714;SDS011;51144;53.002;6.506;2022-07-24T12:56:51;2.45;;;0.85;;
64714;SDS011;51144;53.002;6.506;2022-07-24T12:59:28;2.22;;;0.88;;
64714;SDS011;51144;53.002;6.506;2022-07-24T13:01:55;0.93;;;0.70;;
64714;SDS011;51144;53.002;6.506;2022-07-24T13:04:23;1.65;;;1.00;;
64714;SDS011;51144;53.002;6.506;2022-07-24T13:06:55;1.33;;;0.73;;
64714;SDS011;51144;53.002;6.506;2022-07-24T13:09:22;2.17;;;0.85;;
64714;SDS011;51144;53.002;6.506;2022-07-24T13:11:50;2.65;;;1.02;;
64714;SDS011;51144;53.002;6.506;2022-07-24T13:14:17;4.43;;;1.27;;
64714;SDS011;51144;53.002;6.506;2022-07-24T13:16:44;2.75;;;0.98;;
64714;SDS011;51144;53.002;6.506;2022-07-24T13:19:11;1.60;;;0.88;;
64714;SDS011;51144;53.002;6.506;2022-07-24T13:21:37;1.52;;;0.95;;
64714;SDS011;51144;53.002;6.506;2022-07-24T13:24:04;1.17;;;0.98;;
64714;SDS011;51144;53.002;6.506;2022-07-24T13:26:30;2.15;;;0.80;;
64714;SDS011;51144;53.002;6.506;2022-07-24T13:28:56;1.92;;;1.08;;
64714;SDS011;51144;53.002;6.506;2022-07-24T13:31:22;2.10;;;0.73;;
64714;SDS011;51144;53.002;6.506;2022-07-24T13:33:51;2.03;;;0.70;;
64714;SDS011;51144;53.002;6.506;2022-07-24T13:36:17;1.67;;;0.85;;
64714;SDS011;51144;53.002;6.506;2022-07-24T13:38:43;6.50;;;0.98;;
64714;SDS011;51144;53.002;6.506;2022-07-24T13:41:13;3.97;;;0.80;;
64714;SDS011;51144;53.002;6.506;2022-07-24T13:43:39;3.28;;;0.85;;
64714;SDS011;51144;53.002;6.506;2022-07-24T13:46:05;1.50;;;0.77;;
64714;SDS011;51144;53.002;6.506;2022-07-24T13:48:32;1.25;;;0.70;;
64714;SDS011;51144;53.002;6.506;2022-07-24T13:51:01;1.50;;;1.00;;
64714;SDS011;51144;53.002;6.506;2022-07-24T13:53:26;1.15;;;0.95;;
64714;SDS011;51144;53.002;6.506;2022-07-24T13:55:52;2.85;;;0.90;;
64714;SDS011;51144;53.002;6.506;2022-07-24T13:58:17;3.03;;;0.80;;
64714;SDS011;51144;53.002;6.506;2022-07-24T14:00:43;1.10;;;0.80;;
64714;SDS011;51144;53.002;6.506;2022-07-24T14:03:08;1.02;;;0.65;;
64714;SDS011;51144;53.002;6.506;2022-07-24T14:05:34;1.20;;;0.70;;
64714;SDS011;51144;53.002;6.506;2022-07-24T14:08:00;2.45;;;0.95;;
64714;SDS011;51144;53.002;6.506;2022-07-24T14:10:25;2.65;;;0.68;;
64714;SDS011;51144;53.002;6.506;2022-07-24T14:12:51;0.98;;;0.70;;
64714;SDS011;51144;53.002;6.506;2022-07-24T14:15:16;0.95;;;0.63;;
64714;SDS011;51144;53.002;6.506;2022-07-24T14:17:45;2.70;;;0.80;;
64714;SDS011;51144;53.002;6.506;2022-07-24T14:20:11;1.10;;;0.90;;
64714;SDS011;51144;53.002;6.506;2022-07-24T14:22:38;1.98;;;0.88;;
64714;SDS011;51144;53.002;6.506;2022-07-24T14:25:05;1.88;;;0.93;;
64714;SDS011;51144;53.002;6.506;2022-07-24T14:27:32;1.58;;;0.82;;
64714;SDS011;51144;53.002;6.506;2022-07-24T14:29:58;5.13;;;0.90;;
64714;SDS011;51144;53.002;6.506;2022-07-24T14:32:23;2.15;;;0.70;;
64714;SDS011;51144;53.002;6.506;2022-07-24T14:34:49;3.20;;;0.93;;
64714;SDS011;51144;53.002;6.506;2022-07-24T14:37:15;1.50;;;0.50;;
64714;SDS011;51144;53.002;6.506;2022-07-24T14:39:41;1.98;;;0.82;;
64714;SDS011;51144;53.002;6.506;2022-07-24T14:42:07;3.17;;;0.55;;
64714;SDS011;51144;53.002;6.506;2022-07-24T14:44:33;4.55;;;0.85;;
64714;SDS011;51144;53.002;6.506;2022-07-24T14:46:59;2.90;;;0.55;;
64714;SDS011;51144;53.002;6.506;2022-07-24T14:49:25;1.40;;;0.70;;
64714;SDS011;51144;53.002;6.506;2022-07-24T14:51:52;2.35;;;0.90;;
64714;SDS011;51144;53.002;6.506;2022-07-24T14:54:18;1.20;;;0.95;;
64714;SDS011;51144;53.002;6.506;2022-07-24T14:56:43;1.20;;;0.60;;
64714;SDS011;51144;53.002;6.506;2022-07-24T14:59:09;2.13;;;1.10;;
64714;SDS011;51144;53.002;6.506;2022-07-24T15:01:35;8.00;;;1.17;;
64714;SDS011;51144;53.002;6.506;2022-07-24T15:04:01;5.78;;;0.93;;
64714;SDS011;51144;53.002;6.506;2022-07-24T15:06:27;1.58;;;0.70;;
64714;SDS011;51144;53.002;6.506;2022-07-24T15:08:53;1.25;;;0.73;;
64714;SDS011;51144;53.002;6.506;2022-07-24T15:11:19;2.08;;;0.88;;
64714;SDS011;51144;53.002;6.506;2022-07-24T15:13:47;3.25;;;1.23;;
64714;SDS011;51144;53.002;6.506;2022-07-24T15:16:13;2.25;;;0.80;;
64714;SDS011;51144;53.002;6.506;2022-07-24T15:18:39;1.08;;;0.38;;
64714;SDS011;51144;53.002;6.506;2022-07-24T15:21:05;2.53;;;1.20;;
64714;SDS011;51144;53.002;6.506;2022-07-24T15:23:30;1.23;;;0.90;;
64714;SDS011;51144;53.002;6.506;2022-07-24T15:25:56;1.42;;;0.77;;
64714;SDS011;51144;53.002;6.506;2022-07-24T15:28:22;1.65;;;0.82;;
64714;SDS011;51144;53.002;6.506;2022-07-24T15:30:47;1.08;;;0.90;;
64714;SDS011;51144;53.002;6.506;2022-07-24T15:33:13;2.03;;;0.75;;